createdAt,value
2022-09-28T00:01:46.099Z,100.00
2022-09-28T00:04:16.570Z,100.00
2022-09-28T00:06:47.415Z,100.00
2022-09-28T00:09:17.888Z,100.00
2022-09-28T00:11:50.509Z,100.00
2022-09-28T00:14:20.292Z,100.00
2022-09-28T00:16:50.662Z,100.00
2022-09-28T00:19:21.143Z,100.00
2022-09-28T00:21:51.144Z,100.00
2022-09-28T00:24:25.256Z,100.00
2022-09-28T00:27:02.955Z,100.00
2022-09-28T00:29:34.536Z,100.00
2022-09-28T00:32:05.592Z,100.00
2022-09-28T00:34:36.601Z,100.00
2022-09-28T00:37:09.098Z,100.00
2022-09-28T00:39:41.537Z,100.00
2022-09-28T00:42:20.007Z,100.00
2022-09-28T00:44:51.120Z,100.00
2022-09-28T00:47:23.653Z,100.00
2022-09-28T00:49:56.454Z,100.00
2022-09-28T00:52:29.024Z,100.00
2022-09-28T00:55:01.655Z,100.00
2022-09-28T00:57:36.080Z,100.00
2022-09-28T01:00:06.830Z,100.00
2022-09-28T01:02:36.944Z,100.00
2022-09-28T01:05:08.195Z,100.00
2022-09-28T01:07:38.748Z,100.00
2022-09-28T01:10:09.053Z,100.00
2022-09-28T01:12:41.799Z,100.00
2022-09-28T01:15:12.964Z,100.00
2022-09-28T01:17:52.142Z,100.00
2022-09-28T01:20:30.241Z,100.00
2022-09-28T01:23:13.234Z,100.00
2022-09-28T01:25:49.131Z,100.00
2022-09-28T01:28:24.223Z,100.00
2022-09-28T01:30:59.925Z,100.00
2022-09-28T01:33:32.315Z,100.00
2022-09-28T01:36:06.559Z,100.00
2022-09-28T01:38:40.803Z,100.00
2022-09-28T01:41:12.452Z,100.00
2022-09-28T01:43:47.266Z,100.00
2022-09-28T01:46:20.567Z,100.00
2022-09-28T01:48:53.592Z,100.00
2022-09-28T01:51:28.340Z,100.00
2022-09-28T01:54:00.587Z,100.00
2022-09-28T01:56:34.059Z,100.00
2022-09-28T01:59:11.021Z,100.00
2022-09-28T02:01:43.820Z,100.00
2022-09-28T02:04:16.356Z,100.00
2022-09-28T02:06:52.290Z,100.00
2022-09-28T02:09:25.217Z,100.00
2022-09-28T02:11:59.241Z,100.00
2022-09-28T02:14:33.504Z,100.00
2022-09-28T02:17:05.301Z,100.00
2022-09-28T02:19:36.308Z,100.00
2022-09-28T02:22:11.144Z,100.00
2022-09-28T02:24:42.913Z,100.00
2022-09-28T02:27:18.130Z,100.00
2022-09-28T02:29:51.799Z,100.00
2022-09-28T02:32:23.264Z,100.00
2022-09-28T02:34:53.083Z,100.00
2022-09-28T02:37:23.132Z,100.00
2022-09-28T02:39:52.868Z,100.00
2022-09-28T02:42:25.889Z,100.00
2022-09-28T02:45:27.400Z,100.00
2022-09-28T02:48:06.991Z,100.00
2022-09-28T02:50:41.905Z,100.00
2022-09-28T02:53:28.478Z,100.00
2022-09-28T02:56:12.046Z,100.00
2022-09-28T02:58:48.481Z,100.00
2022-09-28T03:01:26.672Z,100.00
2022-09-28T03:04:01.147Z,100.00
2022-09-28T03:06:35.042Z,100.00
2022-09-28T03:09:08.789Z,100.00
2022-09-28T03:11:46.665Z,100.00
2022-09-28T03:14:17.749Z,100.00
2022-09-28T03:17:08.147Z,100.00
2022-09-28T03:19:38.308Z,100.00
2022-09-28T03:22:08.297Z,100.00
2022-09-28T03:24:38.454Z,100.00
2022-09-28T03:27:08.350Z,100.00
2022-09-28T03:29:38.590Z,100.00
2022-09-28T03:32:12.852Z,100.00
2022-09-28T03:34:42.664Z,100.00
2022-09-28T03:37:12.841Z,100.00
2022-09-28T03:39:43.121Z,100.00
2022-09-28T03:42:13.517Z,100.00
2022-09-28T03:44:48.205Z,100.00
2022-09-28T03:47:21.840Z,100.00
2022-09-28T03:49:51.855Z,100.00
2022-09-28T03:52:21.717Z,100.00
2022-09-28T03:54:51.873Z,100.00
2022-09-28T03:57:21.635Z,100.00
2022-09-28T03:59:52.577Z,100.00
2022-09-28T04:02:25.420Z,100.00
2022-09-28T04:04:55.218Z,100.00
2022-09-28T04:07:28.969Z,100.00
2022-09-28T04:10:00.964Z,100.00
2022-09-28T04:12:31.324Z,100.00
2022-09-28T04:15:01.518Z,100.00
2022-09-28T04:17:39.185Z,100.00
2022-09-28T04:20:14.505Z,100.00
2022-09-28T04:22:58.638Z,100.00
2022-09-28T04:25:28.585Z,100.00
2022-09-28T04:28:11.848Z,100.00
2022-09-28T04:30:41.927Z,100.00
2022-09-28T04:33:14.492Z,100.00
2022-09-28T04:35:44.515Z,100.00
2022-09-28T04:38:14.606Z,100.00
2022-09-28T04:40:44.922Z,100.00
2022-09-28T04:43:15.390Z,100.00
2022-09-28T04:45:46.001Z,100.00
2022-09-28T04:48:18.795Z,100.00
2022-09-28T04:51:07.376Z,100.00
2022-09-28T04:53:37.410Z,100.00
2022-09-28T04:56:09.355Z,100.00
2022-09-28T04:58:48.985Z,100.00
2022-09-28T05:01:24.417Z,100.00
2022-09-28T05:04:03.148Z,100.00
2022-09-28T05:07:00.230Z,100.00
2022-09-28T05:09:31.607Z,100.00
2022-09-28T05:12:05.386Z,100.00
2022-09-28T05:14:36.498Z,100.00
2022-09-28T05:17:07.441Z,100.00
2022-09-28T05:20:00.903Z,100.00
2022-09-28T05:22:31.679Z,100.00
2022-09-28T05:25:03.101Z,100.00
2022-09-28T05:27:39.343Z,100.00
2022-09-28T05:30:20.875Z,100.00
2022-09-28T05:33:26.910Z,100.00
2022-09-28T05:36:15.157Z,100.00
2022-09-28T05:38:46.100Z,100.00
2022-09-28T05:41:16.989Z,100.00
2022-09-28T05:43:47.214Z,100.00
2022-09-28T05:46:17.333Z,100.00
2022-09-28T05:48:47.675Z,100.00
2022-09-28T05:51:20.980Z,100.00
2022-09-28T05:53:52.074Z,100.00
2022-09-28T05:56:22.031Z,100.00
2022-09-28T05:58:54.786Z,100.00
2022-09-28T06:01:28.863Z,100.00
2022-09-28T06:04:01.438Z,100.00
2022-09-28T06:06:34.633Z,100.00
2022-09-28T06:09:04.751Z,100.00
2022-09-28T06:11:56.190Z,100.00
2022-09-28T06:14:36.573Z,100.00
2022-09-28T06:17:06.731Z,100.00
2022-09-28T06:19:37.356Z,100.00
2022-09-28T06:22:33.843Z,100.00
2022-09-28T06:25:10.407Z,100.00
2022-09-28T06:27:42.816Z,100.00
2022-09-28T06:30:13.888Z,100.00
2022-09-28T06:32:43.934Z,100.00
2022-09-28T06:35:15.723Z,100.00
2022-09-28T06:37:50.361Z,100.00
2022-09-28T06:40:20.642Z,100.00
2022-09-28T06:42:58.513Z,100.00
2022-09-28T06:45:58.190Z,100.00
2022-09-28T06:48:49.128Z,100.00
2022-09-28T06:51:29.861Z,100.00
2022-09-28T06:54:03.847Z,100.00
2022-09-28T06:56:41.646Z,100.00
2022-09-28T06:59:11.748Z,100.00
2022-09-28T07:01:41.557Z,100.00
2022-09-28T07:04:21.624Z,100.00
2022-09-28T07:07:27.498Z,100.00
2022-09-28T07:10:33.141Z,100.00
2022-09-28T07:13:49.151Z,100.00
2022-09-28T07:16:26.790Z,100.00
2022-09-28T07:19:00.036Z,100.00
2022-09-28T07:21:30.884Z,100.00
2022-09-28T07:24:05.894Z,100.00
2022-09-28T07:26:57.526Z,100.00
2022-09-28T07:29:49.563Z,100.00
2022-09-28T07:32:49.414Z,100.00
2022-09-28T07:35:42.782Z,100.00
2022-09-28T07:38:13.734Z,100.00
2022-09-28T07:40:56.209Z,100.00
2022-09-28T07:43:29.042Z,100.00
2022-09-28T07:45:59.368Z,100.00
2022-09-28T07:48:37.076Z,100.00
2022-09-28T07:51:13.115Z,100.00
2022-09-28T07:53:54.313Z,100.00
2022-09-28T07:56:47.087Z,100.00
2022-09-28T07:59:32.593Z,100.00
2022-09-28T08:02:22.198Z,100.00
2022-09-28T08:04:53.237Z,100.00
2022-09-28T08:07:24.211Z,100.00
2022-09-28T08:10:02.065Z,100.00
2022-09-28T08:12:31.998Z,100.00
2022-09-28T08:15:20.289Z,100.00
2022-09-28T08:18:02.014Z,99.05
2022-09-28T08:20:49.356Z,100.00
2022-09-28T08:23:22.130Z,100.00
2022-09-28T08:25:54.296Z,99.05
2022-09-28T08:28:26.360Z,100.00
2022-09-28T08:31:04.709Z,99.04
2022-09-28T08:33:34.920Z,100.00
2022-09-28T08:36:24.273Z,100.00
2022-09-28T08:39:13.220Z,100.00
2022-09-28T08:42:19.276Z,99.86
2022-09-28T08:45:15.027Z,94.87
2022-09-28T08:48:20.838Z,98.67
2022-09-28T08:51:19.777Z,94.92
2022-09-28T08:54:09.506Z,98.30
2022-09-28T08:56:56.578Z,94.39
2022-09-28T08:59:28.184Z,94.91
2022-09-28T09:02:05.799Z,94.11
2022-09-28T09:04:40.706Z,95.16
2022-09-28T09:07:45.430Z,94.52
2022-09-28T09:10:23.174Z,95.08
2022-09-28T09:13:00.892Z,95.97
2022-09-28T09:15:39.275Z,93.89
2022-09-28T09:18:30.908Z,93.66
2022-09-28T09:21:13.405Z,90.26
2022-09-28T09:23:50.112Z,89.62
2022-09-28T09:26:25.444Z,88.57
2022-09-28T09:29:12.530Z,83.84
2022-09-28T09:32:03.519Z,89.05
2022-09-28T09:34:40.364Z,87.26
2022-09-28T09:37:38.620Z,87.89
2022-09-28T09:40:53.710Z,88.11
2022-09-28T09:43:59.355Z,90.93
2022-09-28T09:46:56.507Z,89.10
2022-09-28T09:49:34.980Z,90.96
2022-09-28T09:52:08.474Z,92.09
2022-09-28T09:54:43.975Z,84.41
2022-09-28T09:57:22.656Z,85.78
2022-09-28T10:00:08.327Z,87.67
2022-09-28T10:02:45.598Z,87.56
2022-09-28T10:05:34.068Z,87.70
2022-09-28T10:08:07.136Z,88.24
2022-09-28T10:10:42.652Z,86.42
2022-09-28T10:13:15.818Z,86.54
2022-09-28T10:15:48.589Z,83.38
2022-09-28T10:18:25.380Z,85.77
2022-09-28T10:21:16.358Z,86.78
2022-09-28T10:23:58.575Z,87.16
2022-09-28T10:26:37.791Z,88.59
2022-09-28T10:29:15.021Z,93.09
2022-09-28T10:31:47.503Z,94.86
2022-09-28T10:34:31.139Z,89.26
2022-09-28T10:37:10.686Z,86.59
2022-09-28T10:40:30.682Z,86.20
2022-09-28T10:43:09.678Z,89.05
2022-09-28T10:45:42.314Z,84.06
2022-09-28T10:48:19.003Z,83.56
2022-09-28T10:51:01.133Z,85.20
2022-09-28T10:53:31.481Z,85.94
2022-09-28T10:56:11.663Z,86.68
2022-09-28T10:58:45.157Z,84.30
2022-09-28T11:01:24.360Z,84.76
2022-09-28T11:03:57.119Z,84.53
2022-09-28T11:06:31.533Z,82.60
2022-09-28T11:09:04.132Z,84.60
2022-09-28T11:11:34.911Z,87.03
2022-09-28T11:14:21.586Z,86.21
2022-09-28T11:16:51.633Z,88.58
2022-09-28T11:19:31.821Z,88.77
2022-09-28T11:22:01.886Z,87.27
2022-09-28T11:24:38.658Z,88.75
2022-09-28T11:27:08.793Z,89.34
2022-09-28T11:29:43.947Z,83.29
2022-09-28T11:32:34.805Z,85.49
2022-09-28T11:35:26.695Z,85.06
2022-09-28T11:38:02.054Z,83.13
2022-09-28T11:41:19.894Z,85.03
2022-09-28T11:44:06.248Z,87.10
2022-09-28T11:46:44.953Z,88.59
2022-09-28T11:49:20.148Z,85.18
2022-09-28T11:51:52.628Z,84.76
2022-09-28T11:54:31.823Z,80.78
2022-09-28T11:57:07.054Z,82.60
2022-09-28T11:59:39.841Z,78.96
2022-09-28T12:02:19.027Z,79.07
2022-09-28T12:04:56.470Z,77.58
2022-09-28T12:07:30.532Z,76.52
2022-09-28T12:10:03.248Z,75.25
2022-09-28T12:12:35.597Z,75.72
2022-09-28T12:15:19.359Z,75.88
2022-09-28T12:17:55.744Z,79.04
2022-09-28T12:20:28.089Z,77.90
2022-09-28T12:23:03.048Z,77.20
2022-09-28T12:25:45.487Z,77.85
2022-09-28T12:28:19.948Z,80.40
2022-09-28T12:30:51.414Z,80.92
2022-09-28T12:39:59.212Z,80.83
2022-09-28T12:42:39.564Z,78.39
2022-09-28T12:45:19.607Z,78.60
2022-09-28T12:48:02.402Z,80.02
2022-09-28T12:50:40.820Z,80.09
2022-09-28T12:53:24.402Z,77.73
2022-09-28T12:56:03.721Z,77.13
2022-09-28T12:58:48.405Z,76.42
2022-09-28T13:01:25.311Z,76.67
2022-09-28T13:04:04.583Z,77.20
2022-09-28T13:06:43.173Z,76.51
2022-09-28T13:09:25.802Z,77.37
2022-09-28T13:12:06.290Z,77.30
2022-09-28T13:14:53.552Z,76.15
2022-09-28T13:17:27.212Z,78.09
2022-09-28T13:20:00.823Z,76.54
2022-09-28T13:22:38.178Z,79.23
2022-09-28T13:25:14.945Z,76.76
2022-09-28T13:27:51.321Z,77.10
2022-09-28T13:30:22.066Z,75.78
2022-09-28T13:32:54.510Z,75.38
2022-09-28T13:35:24.603Z,74.67
2022-09-28T13:38:28.404Z,77.41
2022-09-28T13:41:14.077Z,78.14
2022-09-28T13:43:54.280Z,78.41
2022-09-28T13:46:29.038Z,79.26
2022-09-28T13:49:08.430Z,78.20
2022-09-28T13:51:43.836Z,76.26
2022-09-28T13:54:25.150Z,78.85
2022-09-28T13:56:59.440Z,76.51
2022-09-28T13:59:33.025Z,72.00
2022-09-28T14:02:07.413Z,75.29
2022-09-28T14:04:52.494Z,74.20
2022-09-28T14:07:24.172Z,72.43
2022-09-28T14:10:13.474Z,74.92
2022-09-28T14:12:48.314Z,75.20
2022-09-28T14:15:34.219Z,75.79
2022-09-28T14:18:10.071Z,73.53
2022-09-28T14:20:40.774Z,76.13
2022-09-28T14:23:34.903Z,74.37
2022-09-28T14:26:18.649Z,77.61
2022-09-28T14:28:54.697Z,78.39
2022-09-28T14:31:28.014Z,78.24
2022-09-28T14:34:02.490Z,79.80
2022-09-28T14:36:49.550Z,76.62
2022-09-28T14:39:36.080Z,78.97
2022-09-28T14:42:11.220Z,79.53
2022-09-28T14:44:56.324Z,77.23
2022-09-28T14:47:37.268Z,78.75
2022-09-28T14:50:24.226Z,78.50
2022-09-28T14:52:55.937Z,78.08
2022-09-28T14:55:31.028Z,78.75
2022-09-28T14:58:01.725Z,82.41
2022-09-28T15:00:37.621Z,81.89
2022-09-28T15:03:12.198Z,82.00
2022-09-28T15:05:47.418Z,84.11
2022-09-28T15:08:18.211Z,86.36
2022-09-28T15:10:48.913Z,86.08
2022-09-28T15:13:24.222Z,84.79
2022-09-28T15:15:55.996Z,88.11
2022-09-28T15:18:44.303Z,90.40
2022-09-28T15:21:17.075Z,89.27
2022-09-28T15:23:48.148Z,89.17
2022-09-28T15:26:25.289Z,90.62
2022-09-28T15:28:55.093Z,87.65
2022-09-28T15:31:26.431Z,90.20
2022-09-28T15:34:09.000Z,88.18
2022-09-28T15:36:43.296Z,90.33
2022-09-28T15:39:15.910Z,90.95
2022-09-28T15:41:46.147Z,90.29
2022-09-28T15:44:32.492Z,91.34
2022-09-28T15:47:11.141Z,93.13
2022-09-28T15:49:44.257Z,91.93
2022-09-28T15:52:37.729Z,93.00
2022-09-28T15:55:15.948Z,94.26
2022-09-28T15:57:45.718Z,92.88
2022-09-28T16:00:26.926Z,92.11
2022-09-28T16:03:01.826Z,93.79
2022-09-28T16:05:49.557Z,93.79
2022-09-28T16:08:25.065Z,94.51
2022-09-28T16:10:57.638Z,93.59
2022-09-28T16:13:28.078Z,94.74
2022-09-28T16:16:00.619Z,95.33
2022-09-28T16:18:31.603Z,93.92
2022-09-28T16:21:05.028Z,93.42
2022-09-28T16:23:45.522Z,95.64
2022-09-28T16:26:18.521Z,93.94
2022-09-28T16:28:53.016Z,96.28
2022-09-28T16:31:28.272Z,95.11
2022-09-28T16:33:59.145Z,96.85
2022-09-28T16:36:30.235Z,96.24
2022-09-28T16:39:03.189Z,98.32
2022-09-28T16:41:33.664Z,98.12
2022-09-28T16:44:05.016Z,98.85
2022-09-28T16:46:37.870Z,100.00
2022-09-28T16:49:09.125Z,99.05
2022-09-28T16:51:40.284Z,100.00
2022-09-28T16:54:28.951Z,99.06
2022-09-28T16:56:59.103Z,100.00
2022-09-28T16:59:29.846Z,100.00
2022-09-28T17:01:59.962Z,100.00
2022-09-28T17:04:32.410Z,99.92
2022-09-28T17:07:02.375Z,100.00
2022-09-28T17:09:35.227Z,99.83
2022-09-28T17:12:05.307Z,100.00
2022-09-28T17:14:34.984Z,100.00
2022-09-28T17:17:10.606Z,100.00
2022-09-28T17:19:44.170Z,100.00
2022-09-28T17:22:14.403Z,100.00
2022-09-28T17:24:47.915Z,100.00
2022-09-28T17:27:19.761Z,100.00
2022-09-28T17:29:49.631Z,100.00
2022-09-28T17:32:21.522Z,100.00
2022-09-28T17:35:00.795Z,100.00
2022-09-28T17:37:41.555Z,100.00
2022-09-28T17:40:20.838Z,100.00
2022-09-28T17:42:50.909Z,100.00
2022-09-28T17:45:21.784Z,100.00
2022-09-28T17:47:51.889Z,100.00
2022-09-28T17:50:23.772Z,100.00
2022-09-28T17:53:06.054Z,100.00
2022-09-28T17:55:39.557Z,100.00
2022-09-28T17:58:17.144Z,100.00
2022-09-28T18:00:48.114Z,100.00
2022-09-28T18:03:19.921Z,100.00
2022-09-28T18:05:52.297Z,100.00
2022-09-28T18:08:22.910Z,100.00
2022-09-28T18:10:57.221Z,100.00
2022-09-28T18:13:27.284Z,100.00
2022-09-28T18:15:57.747Z,100.00
2022-09-28T18:18:28.074Z,100.00
2022-09-28T18:20:57.947Z,100.00
2022-09-28T18:23:28.088Z,100.00
2022-09-28T18:26:00.882Z,100.00
2022-09-28T18:28:31.387Z,100.00
2022-09-28T18:31:01.473Z,100.00
2022-09-28T18:33:31.390Z,100.00
2022-09-28T18:36:01.500Z,100.00
2022-09-28T18:38:31.430Z,100.00
2022-09-28T18:41:09.215Z,100.00
2022-09-28T18:43:39.499Z,100.00
2022-09-28T18:46:10.238Z,100.00
2022-09-28T18:48:40.787Z,100.00
2022-09-28T18:51:11.694Z,100.00
2022-09-28T18:53:41.903Z,100.00
2022-09-28T18:56:16.093Z,100.00
2022-09-28T18:58:46.291Z,100.00
2022-09-28T19:01:33.391Z,100.00
2022-09-28T19:04:03.812Z,100.00
2022-09-28T19:06:35.826Z,100.00
2022-09-28T19:09:07.846Z,100.00
2022-09-28T19:11:43.985Z,100.00
2022-09-28T19:14:22.975Z,100.00
2022-09-28T19:16:52.943Z,100.00
2022-09-28T19:19:23.342Z,100.00
2022-09-28T19:21:53.379Z,100.00
2022-09-28T19:24:23.464Z,100.00
2022-09-28T19:26:56.801Z,100.00
2022-09-28T19:29:26.789Z,100.00
2022-09-28T19:31:57.430Z,100.00
2022-09-28T19:34:30.345Z,100.00
2022-09-28T19:37:03.978Z,100.00
2022-09-28T19:39:35.761Z,100.00
2022-09-28T19:42:08.946Z,100.00
2022-09-28T19:44:39.365Z,100.00
2022-09-28T19:47:10.161Z,100.00
2022-09-28T19:49:41.193Z,100.00
2022-09-28T19:52:16.770Z,100.00
2022-09-28T19:54:57.094Z,100.00
2022-09-28T19:57:30.697Z,100.00
2022-09-28T20:00:05.696Z,100.00
2022-09-28T20:02:36.046Z,100.00
2022-09-28T20:05:06.189Z,100.00
2022-09-28T20:07:37.152Z,100.00
2022-09-28T20:10:08.588Z,100.00
2022-09-28T20:12:42.441Z,100.00
2022-09-28T20:15:13.925Z,100.00
2022-09-28T20:17:43.984Z,100.00
2022-09-28T20:20:13.865Z,100.00
2022-09-28T20:22:45.227Z,100.00
2022-09-28T20:25:15.124Z,100.00
2022-09-28T20:27:47.978Z,100.00
2022-09-28T20:30:18.410Z,100.00
2022-09-28T20:32:49.686Z,100.00
2022-09-28T20:35:30.608Z,100.00
2022-09-28T20:38:08.226Z,100.00
2022-09-28T20:40:38.079Z,100.00
2022-09-28T20:43:10.888Z,100.00
2022-09-28T20:45:41.229Z,100.00
2022-09-28T20:48:11.841Z,100.00
2022-09-28T20:50:42.801Z,100.00
2022-09-28T20:53:12.630Z,100.00
2022-09-28T20:55:42.341Z,100.00
2022-09-28T20:58:14.826Z,100.00
2022-09-28T21:00:45.133Z,100.00
2022-09-28T21:03:15.135Z,100.00
2022-09-28T21:05:45.493Z,100.00
2022-09-28T21:08:15.646Z,100.00
2022-09-28T21:10:48.309Z,100.00
2022-09-28T21:13:21.348Z,100.00
2022-09-28T21:15:51.997Z,100.00
2022-09-28T21:18:22.922Z,100.00
2022-09-28T21:20:53.914Z,100.00
2022-09-28T21:23:25.080Z,100.00
2022-09-28T21:26:03.734Z,100.00
2022-09-28T21:28:36.751Z,100.00
2022-09-28T21:31:08.814Z,100.00
2022-09-28T21:33:39.046Z,100.00
2022-09-28T21:36:10.237Z,100.00
2022-09-28T21:38:40.240Z,100.00
2022-09-28T21:41:10.416Z,100.00
2022-09-28T21:43:43.164Z,100.00
2022-09-28T21:46:13.224Z,100.00
2022-09-28T21:48:43.522Z,100.00
2022-09-28T21:51:15.728Z,100.00
2022-09-28T21:53:45.774Z,100.00
2022-09-28T21:56:16.181Z,100.00
2022-09-28T21:58:49.123Z,100.00
2022-09-28T22:01:19.690Z,100.00
2022-09-28T22:03:50.625Z,100.00
2022-09-28T22:06:21.650Z,100.00
2022-09-28T22:08:52.692Z,100.00
2022-09-28T22:11:23.963Z,100.00
2022-09-28T22:13:57.693Z,100.00
2022-09-28T22:16:29.029Z,100.00
2022-09-28T22:18:59.116Z,100.00
2022-09-28T22:21:30.381Z,100.00
2022-09-28T22:24:01.417Z,100.00
2022-09-28T22:26:31.911Z,100.00
2022-09-28T22:29:05.172Z,100.00
2022-09-28T22:31:36.909Z,100.00
2022-09-28T22:34:07.748Z,100.00
2022-09-28T22:36:37.668Z,100.00
2022-09-28T22:39:07.491Z,100.00
2022-09-28T22:41:37.467Z,100.00
2022-09-28T22:44:10.357Z,100.00
2022-09-28T22:46:40.179Z,100.00
2022-09-28T22:49:13.052Z,100.00
2022-09-28T22:51:43.048Z,100.00
2022-09-28T22:54:15.823Z,100.00
2022-09-28T22:56:46.589Z,100.00
2022-09-28T22:59:19.505Z,100.00
2022-09-28T23:01:49.400Z,100.00
2022-09-28T23:04:19.348Z,100.00
2022-09-28T23:06:49.392Z,100.00
2022-09-28T23:09:19.497Z,100.00
2022-09-28T23:11:49.512Z,100.00
2022-09-28T23:14:22.893Z,100.00
2022-09-28T23:16:52.930Z,100.00
2022-09-28T23:19:22.999Z,100.00
2022-09-28T23:21:54.716Z,100.00
2022-09-28T23:24:24.469Z,100.00
2022-09-28T23:26:54.610Z,100.00
2022-09-28T23:29:27.331Z,100.00
2022-09-28T23:31:57.055Z,100.00
2022-09-28T23:34:26.942Z,100.00
2022-09-28T23:36:57.015Z,100.00
2022-09-28T23:39:26.990Z,100.00
2022-09-28T23:41:59.094Z,100.00
2022-09-28T23:44:33.160Z,100.00
2022-09-28T23:47:03.212Z,100.00
2022-09-28T23:49:33.289Z,100.00
2022-09-28T23:52:03.181Z,100.00
2022-09-28T23:54:33.112Z,100.00
2022-09-28T23:57:02.793Z,100.00
2022-09-28T23:59:35.102Z,100.00
